Главная страница
METAR-TAF:

METAR-TAF

Аэропорты :

Международный аэропорт Фуаамоту

Тонгатапу, Тонга

широта: 21-14S, долгота: 175-09W, высота над уровнем моря: 38 м

Текущие метеонаблюдения

Эта сводка был подготовлена 1 час и 9 минут назад, в 02:00 UTC
Ветер 7 Узел от юго-восточный
Температура 23°C
Влажность 65%
Давление 1015 hPa
Видимость 10 км и более
небольшая облачность на высоте 2000 фута
Рассеянная облачность на высоте 10000 фута

METAR: NFTF 170200Z 14007KT 9999 FEW020 BKN100 23/16 Q1015

Время: 16:09 (03:09 UTC)

Прогноз

Эта сводка был подготовлена 3 часа и 45 минут назад, в 23:24 UTC
Прогноз действительный с 17-го 00 UTC до 17-го 24 UTC
Ветер 8 Узел от юго-восточный
Видимость 10 км и более
небольшая облачность на высоте 1700 фута
Рассеянная облачность на высоте 4000 фута

TAF: NFTF 162324Z 1700/1724 14008KT 9999 FEW017 BKN040

Метеонаблюдения и прогнозы для более 4000 аэропортов (сводки METAR и TAF).

Имеющиеся станции представлены на карте желтыми и красными точками.

Чтобы увидеть название станции, наведите на нее мышь.

Затем щелкните, чтобы увидеть метеонаблюдения и метеопрогнозы.

Управление картой: чтобы увеличить масштаб, щелкните зеленые кнопки с черным крестиком; чтобы уменьшить масштаб, щелкните зеленую кнопку с тире; для просмотра соседних карт щелкайте зеленые стрелки.


METAR-TAF: